Yerington, Nevada Weather observations

Data are for observation ending at time listed.
 Day   Time    Ave.   Ave.  Ave.  Vector   Max.   Stn.    Total    Solar   Ave.  
  of    of     Air    Rel.  Wind   Wind    Wind   Baro.  Precip.   Rad.    Soil  
Year   Day     Temp.  Hum.  Speed  Dir.    Gust   Pres.                    Temp. 
2014   (PST)    F      %     mph   deg.    mph     mb.     in.     W/m2     F   
------------------------------------------------------------------------------
 106   13:40   70.7    14    4.9    46      9.8   864.0    0.00     841    71.5
 106   13:50   71.1    14    3.2    11      7.4   863.8    0.00     825    71.9
 106   14:00   72.2    14    3.9     9     12.9   863.7    0.00     807    72.2
 106   14:10   70.8    14    5.7   331     12.9   863.6    0.00     823    72.7
 106   14:20   71.8    14    4.2    38      9.9   863.5    0.00     789    73.1
 106   14:30   71.5    14    4.3    14      9.4   863.4    0.00     778    73.4
 106   14:40   71.7    14    4.4    39     10.7   863.3    0.00     742    73.7
 106   14:50   72.3    14    4.6    25      9.0   863.2    0.00     690    73.9
 106   15:00   72.0    14    4.8    40     10.4   863.2    0.00     687    74.2
 106   15:10   71.5    14    5.9     7     12.7   863.1    0.00     455    74.7
 106   15:20   70.7    15    5.0   356     10.8   863.1    0.00     482    75.2
 106   15:30   71.1    14    5.1    31     10.5   863.0    0.00     499    75.6
 106   15:40   71.5    14    4.3    54      9.4   863.0    0.00     505    75.7
 106   15:50   71.7    14    5.0    49     10.1   863.0    0.00     516    75.7
 106   16:00   71.4    14    4.6    52      9.4   863.1    0.00     521    75.7
 106   16:10   71.7    14    5.2    58     11.6   863.0    0.00     518    75.7
 106   16:20   71.4    14    4.6    70      9.5   862.9    0.00     418    75.8
 106   16:30   71.2    14    3.9    67      8.2   862.8    0.00     332    75.9
 106   16:40   70.7    14    4.5    16      9.3   862.9    0.00     215    76.0
 106   16:50   71.1    14    4.0    50      7.9   862.9    0.00     362    76.3
 106   17:00   71.6    14    4.6    58     10.3   862.9    0.00     343    76.1
 106   17:10   70.4    14    4.8    64      9.2   863.0    0.00     186    76.1
 106   17:20   69.4    15    4.7    62     10.8   863.0    0.00     145    75.9
 106   17:30   69.2    16    3.8    58      8.5   863.0    0.00      98    76.1
 106   17:40   68.7    16    3.5    55      6.9   863.1    0.00      70    76.2
 106   17:50   68.9    17    3.0    41      7.1   863.1    0.00      82    76.1
 106   18:00   68.7    17    3.2    34      6.5   863.2    0.00      53    75.9
 106   18:10   67.7    17    2.8    35      6.5   863.2    0.00      25    75.8
 106   18:20   66.6    18    3.1    44      6.4   863.2    0.00      19    75.7
 106   18:30   65.6    19    2.7    52      6.0   863.2    0.00      10    75.7
 106   18:40   65.0    19    3.0    48      7.8   863.3    0.00       4    75.5
 106   18:50   64.5    19    1.8    44      4.0   863.5    0.00       0    75.3
 106   19:00   63.9    19    1.0    53      2.6   863.6    0.00       0    75.1
 106   19:10   63.2    19    1.0    37      3.5   863.8    0.00       0    75.0
 106   19:20   61.8    22    0.8   325      2.0   863.9    0.00       0    74.8
 106   19:30   59.3    25    0.1   279      1.3   864.0    0.00       0    74.6
 106   19:40   57.6    27    0.0   247      0.9   864.2    0.00       0    74.4
 106   19:50   56.0    30    0.0     0      0.0   864.3    0.00       0    74.3
 106   20:00   55.1    31    0.0     0      0.0   864.5    0.00       0    74.0
 106   20:10   54.3    31    0.1   292      1.4   864.5    0.00       0    73.8
 106   20:20   55.6    27    0.1   292      1.4   864.6    0.00       0    73.3
 106   20:30   56.4    26    0.5   292      1.8   864.7    0.00       0    72.7
 106   20:40   55.8    27    0.0     0      0.0   864.8    0.00       0    72.2
 106   20:50   55.6    27    0.3   292      1.8   864.8    0.00       0    71.8
 106   21:00   56.0    27    1.1   311      2.7   864.8    0.00       0    71.3
 106   21:10   55.3    28    0.9   316      1.9   864.8    0.00       0    71.0
 106   21:20   54.9    28    1.0   323      1.9   864.8    0.00       0    70.5
 106   21:30   55.0    28    1.5   327      2.2   864.8    0.00       0    70.0
 106   21:40   54.3    28    0.7   325      1.9   864.7    0.00       0    69.7
 106   21:50   53.8    28    0.7   181      2.2   864.7    0.00       0    69.5
 106   22:00   51.8    33    1.8   172      2.9   864.7    0.00       0    69.1
 106   22:10   50.5    36    0.8   175      2.4   864.8    0.00       0    69.0
 106   22:20   49.6    38    1.2   172      2.0   864.9    0.00       0    68.8
 106   22:30   49.7    38    0.5   172      1.2   864.9    0.00       0    68.6
 106   22:40   48.5    39    2.2   192      4.3   864.9    0.00       0    68.3
 106   22:50   45.8    48    2.2   203      4.3   864.9    0.00       0    68.0
 106   23:00   45.4    48    2.1   185      2.8   864.9    0.00       0    67.8
 106   23:10   46.2    44    2.5   166      3.5   865.0    0.00       0    67.6
 106   23:20   46.3    44    2.1   158      2.8   865.0    0.00       0    67.1
 106   23:30   46.7    41    1.9   163      2.9   865.0    0.00       0    66.8
 106   23:40   47.3    38    2.6   162      4.3   864.9    0.00       0    66.4
 106   23:50   46.9    39    2.6   186      4.2   864.8    0.00       0    66.1
 107    0:00   44.4    46    2.1   205      3.9   864.9    0.00       0    65.8
 107    0:10   44.0    46    2.3   192      4.5   865.0    0.00       0    65.7
 107    0:20   44.7    44    2.5   182      3.9   864.9    0.00       0    65.4
 107    0:30   44.5    43    2.3   165      3.7   864.8    0.00       0    65.0
 107    0:40   45.0    40    2.4   170      3.9   864.8    0.00       0    64.7
 107    0:50   46.7    34    3.1   169      5.3   864.8    0.00       0    64.4
 107    1:00   47.4    32    4.3   178      7.0   864.8    0.00       0    64.0
 107    1:10   44.6    42    3.8   185      6.4   864.8    0.00       0    63.6
 107    1:20   43.0    45    3.3   172      5.0   864.7    0.00       0    63.5
 107    1:30   43.4    43    2.9   172      4.5   864.5    0.00       0    63.5
 107    1:40   43.2    43    2.3   165      3.6   864.4    0.00       0    63.4
 107    1:50   42.9    44    1.8   180      3.8   864.5    0.00       0    63.2
 107    2:00   42.6    44    2.0   205      3.3   864.5    0.00       0    63.0
 107    2:10   42.4    45    0.5   209      1.7   864.5    0.00       0    62.9
 107    2:20   42.5    45    2.1   210      4.2   864.6    0.00       0    62.7
 107    2:30   41.3    51    2.4   221      4.1   864.5    0.00       0    62.4
 107    2:40   41.1    50    2.5   216      4.2   864.4    0.00       0    62.3
 107    2:50   41.8    48    2.1   210      3.1   864.4    0.00       0    62.0
 107    3:00   42.2    47    2.0   208      3.8   864.3    0.00       0    61.7
 107    3:10   42.4    46    2.3   201      4.2   864.3    0.00       0    61.6
 107    3:20   42.3    47    0.5   232      2.5   864.3    0.00       0    61.2
 107    3:30   42.3    47    0.5   177      2.6   864.4    0.00       0    61.1
 107    3:40   42.5    45    0.8   156      2.7   864.3    0.00       0    61.0
 107    3:50   42.5    45    0.0   156      0.8   864.3    0.00       0    60.6
 107    4:00   41.4    47    0.0     0      0.0   864.3    0.00       0    60.5
 107    4:10   41.7    47    0.8   136      3.6   864.3    0.00       0    60.4
 107    4:20   41.3    48    0.0     0      0.0   864.3    0.00       0    60.2
 107    4:30   40.5    50    0.2   222      1.6   864.2    0.00       0    60.1
 107    4:40   39.7    52    0.0     0      0.0   864.2    0.00       0    60.0
 107    4:50   39.1    54    0.4   220      1.8   864.2    0.00       0    59.9
 107    5:00   38.6    54    0.6   214      2.0   864.2    0.00       0    59.7
 107    5:10   38.1    56    0.0     0      0.0   864.1    0.00       2    59.6
 107    5:20   38.1    59    0.1   208      1.7   864.1    0.00       7    59.4
 107    5:30   38.4    57    1.8   208      2.5   864.0    0.00      15    59.2
 107    5:40   39.7    53    2.2   197      3.4   863.9    0.00      41    58.8
 107    5:50   41.0    50    3.1   182      4.2   864.0    0.00      66    58.2
 107    6:00   42.1    48    2.7   182      4.3   864.1    0.00     105    57.4
 107    6:10   44.1    44    2.5   168      4.0   864.1    0.00     140    56.8
 107    6:20   45.3    42    2.0   184      3.7   864.2    0.00     178    56.2
 107    6:30   47.4    39    1.6   192      2.9   864.3    0.00     202    55.8
 107    6:40   48.7    37    1.6   128      3.5   864.3    0.00     246    55.5
 107    6:50   52.7    31    0.0   129      1.2   864.2    0.00     283    55.3
 107    7:00   55.1    29    1.0   140      2.8   864.2    0.00     319    55.0
 107    7:10   56.6    27    0.1   185      1.8   864.1    0.00     356    54.9
 107    7:20   58.5    25    1.2   147      4.1   864.1    0.00     392    54.8
 107    7:30   57.2    27    2.8   162      4.3   864.0    0.00     427    54.8
 107    7:40   58.1    26    2.4   134      4.0   864.0    0.00     463    55.0
 107    7:50   59.7    24    1.9   199      4.8   863.9    0.00     497    55.0
 107    8:00   59.0    27    2.3   250      5.0   863.8    0.00     530    55.1
 107    8:10   59.5    27    2.0   274      4.3   863.7    0.00     563    55.6
 107    8:20   61.0    25    1.1   329      3.6   863.6    0.00     595    55.9
 107    8:30   61.9    24    2.2   306      5.7   863.5    0.00     626    56.0
 107    8:40   62.7    24    1.4    77      3.6   863.5    0.00     656    56.3
 107    8:50   63.3    23    2.5    33      4.5   863.4    0.00     686    56.6
 107    9:00   64.1    22    1.7    49      3.4   863.4    0.00     714    56.9
 107    9:10   64.7    22    2.2   309      4.9   863.3    0.00     741    57.3
 107    9:20   64.4    22    2.1   337      5.4   863.3    0.00     768    57.7
 107    9:30   66.4    20    1.6   349      3.8   863.2    0.00     793    58.1
 107    9:40   67.4    20    2.3   119      4.3   863.1    0.00     816    58.4
 107    9:50   68.2    19    1.9   189      4.1   863.1    0.00     838    58.9
 107   10:00   69.3    18    2.1    56      6.2   863.0    0.00     860    59.4
 107   10:10   69.3    18    2.7    92      6.9   862.8    0.00     882    60.0
 107   10:20   69.9    17    2.3    68      5.1   862.8    0.00     908    60.7
 107   10:30   70.7    17    2.7    30      6.2   862.7    0.00     921    61.3
 107   10:40   70.4    18    2.7    39      5.1   862.5    0.00     918    62.0
 107   10:50   70.5    18    3.1    23      7.0   862.3    0.00     855    62.8
 107   11:00   71.2    17    3.3    55      7.2   862.1    0.00     856    63.6
 107   11:10   71.2    17    2.2   145      5.2   862.0    0.00     915    64.3
 107   11:20   71.3    18    3.6   112      7.6   861.8    0.00     782    64.9
 107   11:30   72.4    17    1.8   259      4.3   861.6    0.00     874    65.7
 107   11:40   73.6    16    3.3   144      7.3   861.5    0.00     980    66.1
 107   11:50   73.8    16    2.8   301      5.3   861.4    0.00     981    66.6
 107   12:00   74.1    16    3.4   350      6.3   861.2    0.00     967    67.1
 107   12:10   75.1    16    2.7    21      6.2   861.2    0.00     961    67.9
 107   12:20   76.6    16    3.8   360     10.5   861.0    0.00     950    68.4
 107   12:30   75.8    16    3.9   340      9.8   860.9    0.00     960    69.2
 107   12:40   76.4    16    2.8    49      6.8   860.8    0.00     935    69.8
 107   12:50   76.7    15    5.2   338     11.4   860.8    0.00     868    70.3
 107   13:00   76.5    15    4.4   327     10.6   860.7    0.00     935    71.0
 107   13:10   77.9    15    2.4     1      7.9   860.6    0.00     857    71.5
 107   13:20   78.2    15    3.7    28      6.7   860.4    0.00     848    71.9
 107   13:30   78.3    15    4.0   347      9.0   860.3    0.00     754    72.4

Return to Yerington, Nevada graphs page.


Western Regional Climate Center,wrcc@dri.edu